createdAt,value
2019-03-28T00:01:14.898Z,13.90
2019-03-28T00:03:45.805Z,13.93
2019-03-28T00:06:17.082Z,12.37
2019-03-28T00:08:47.982Z,14.37
2019-03-28T00:11:19.724Z,15.33
2019-03-28T00:13:50.616Z,15.40
2019-03-28T00:16:21.546Z,14.83
2019-03-28T00:18:53.181Z,15.07
2019-03-28T00:21:25.158Z,17.73
2019-03-28T00:24:00.889Z,16.13
2019-03-28T00:26:32.064Z,14.07
2019-03-28T00:29:03.161Z,12.83
2019-03-28T00:31:34.139Z,12.50
2019-03-28T00:34:05.010Z,13.20
2019-03-28T00:36:36.751Z,13.17
2019-03-28T00:39:08.064Z,13.93
2019-03-28T00:41:38.996Z,13.07
2019-03-28T00:44:09.899Z,13.13
2019-03-28T00:46:40.834Z,12.60
2019-03-28T00:49:11.726Z,12.73
2019-03-28T00:51:43.541Z,13.97
2019-03-28T00:54:14.422Z,13.33
2019-03-28T00:56:47.614Z,13.70
2019-03-28T00:59:17.941Z,11.50
2019-03-28T01:01:48.865Z,11.37
2019-03-28T01:04:19.785Z,10.60
2019-03-28T01:06:51.795Z,11.03
2019-03-28T01:09:22.693Z,10.47
2019-03-28T01:11:53.623Z,12.07
2019-03-28T01:14:24.523Z,12.27
2019-03-28T01:16:55.453Z,12.10
2019-03-28T01:19:27.553Z,11.87
2019-03-28T01:21:58.503Z,12.40
2019-03-28T01:24:29.404Z,12.67
2019-03-28T01:27:00.444Z,12.63
2019-03-28T01:29:31.846Z,13.37
2019-03-28T01:32:03.177Z,14.77
2019-03-28T01:34:34.074Z,15.77
2019-03-28T01:37:05.937Z,14.83
2019-03-28T01:39:36.834Z,13.73
2019-03-28T01:42:07.772Z,15.57
2019-03-28T01:44:38.674Z,14.20
2019-03-28T01:47:09.592Z,14.73
2019-03-28T01:49:40.493Z,14.40
2019-03-28T01:52:11.447Z,13.97
2019-03-28T01:54:42.348Z,14.00
2019-03-28T01:57:13.277Z,14.87
2019-03-28T01:59:44.173Z,14.33
2019-03-28T02:02:15.107Z,15.27
2019-03-28T02:04:46.010Z,15.20
2019-03-28T02:07:17.950Z,14.20
2019-03-28T02:09:48.851Z,14.60
2019-03-28T02:12:19.782Z,14.70
2019-03-28T02:14:50.744Z,15.23
2019-03-28T02:17:22.941Z,15.90
2019-03-28T02:19:53.855Z,15.97
2019-03-28T02:22:24.806Z,16.17
2019-03-28T02:24:55.705Z,15.60
2019-03-28T02:27:26.637Z,14.63
2019-03-28T02:29:58.889Z,13.47
2019-03-28T02:32:29.849Z,13.90
2019-03-28T02:35:00.805Z,13.90
2019-03-28T02:37:31.792Z,13.37
2019-03-28T02:40:02.697Z,13.93
2019-03-28T02:42:33.633Z,13.57
2019-03-28T02:45:05.431Z,13.43
2019-03-28T02:47:36.375Z,12.37
2019-03-28T02:50:08.179Z,13.33
2019-03-28T02:52:39.144Z,13.07
2019-03-28T02:55:10.141Z,13.20
2019-03-28T02:57:43.582Z,14.27
2019-03-28T03:00:13.984Z,13.80
2019-03-28T03:02:44.905Z,12.60
2019-03-28T03:05:15.807Z,13.23
2019-03-28T03:07:46.784Z,12.03
2019-03-28T03:10:17.891Z,12.87
2019-03-28T03:12:48.790Z,12.57
2019-03-28T03:15:19.699Z,13.07
2019-03-28T03:17:50.631Z,12.53
2019-03-28T03:20:21.535Z,12.73
2019-03-28T03:22:52.484Z,12.27
2019-03-28T03:25:23.382Z,11.93
2019-03-28T03:27:58.333Z,12.47
2019-03-28T03:30:26.914Z,12.50
2019-03-28T03:32:57.846Z,13.40
2019-03-28T03:35:28.852Z,13.60
2019-03-28T03:37:59.883Z,13.50
2019-03-28T03:40:30.811Z,14.30
2019-03-28T03:43:03.755Z,13.30
2019-03-28T03:45:35.570Z,13.33
2019-03-28T03:48:06.995Z,15.20
2019-03-28T03:50:37.897Z,14.37
2019-03-28T03:53:09.761Z,15.43
2019-03-28T03:55:43.371Z,13.93
2019-03-28T03:58:16.848Z,14.20
2019-03-28T04:00:46.918Z,15.03
2019-03-28T04:03:17.840Z,13.73
2019-03-28T04:05:48.797Z,13.73
2019-03-28T04:08:20.669Z,13.13
2019-03-28T04:10:51.622Z,14.83
2019-03-28T04:13:22.608Z,14.33
2019-03-28T04:15:53.703Z,13.13
2019-03-28T04:18:24.687Z,13.13
2019-03-28T04:20:57.240Z,13.83
2019-03-28T04:23:30.737Z,13.87
2019-03-28T04:26:01.677Z,13.57
2019-03-28T04:28:32.893Z,12.13
2019-03-28T04:31:03.994Z,14.93
2019-03-28T04:33:35.771Z,17.60
2019-03-28T04:36:06.882Z,14.77
2019-03-28T04:38:38.806Z,13.90
2019-03-28T04:41:09.764Z,15.07
2019-03-28T04:43:40.755Z,14.93
2019-03-28T04:46:11.703Z,15.67
2019-03-28T04:48:42.674Z,13.83
2019-03-28T04:51:13.628Z,13.87
2019-03-28T04:53:45.457Z,12.97
2019-03-28T04:56:16.410Z,12.47
2019-03-28T04:58:47.399Z,13.83
2019-03-28T05:01:18.348Z,15.60
2019-03-28T05:03:49.455Z,14.80
2019-03-28T05:06:20.580Z,25.80
2019-03-28T05:08:51.573Z,33.20
2019-03-28T05:11:22.516Z,24.83
2019-03-28T05:13:53.499Z,15.73
2019-03-28T05:16:24.459Z,13.00
2019-03-28T05:18:55.445Z,14.20
2019-03-28T05:21:27.974Z,13.13
2019-03-28T05:24:02.732Z,13.97
2019-03-28T05:26:33.686Z,18.93
2019-03-28T05:29:04.680Z,16.33
2019-03-28T05:31:35.699Z,14.77
2019-03-28T05:34:06.690Z,22.87
2019-03-28T05:36:37.648Z,45.57
2019-03-28T05:39:08.660Z,36.27
2019-03-28T05:41:39.608Z,37.73
2019-03-28T05:44:10.589Z,37.07
2019-03-28T05:46:41.552Z,42.77
2019-03-28T05:49:12.535Z,28.17
2019-03-28T05:51:43.486Z,18.67
2019-03-28T05:54:15.304Z,14.43
2019-03-28T05:56:46.236Z,15.60
2019-03-28T05:59:17.177Z,16.43
2019-03-28T06:01:48.154Z,18.30
2019-03-28T06:04:19.097Z,17.03
2019-03-28T06:06:50.005Z,13.63
2019-03-28T06:09:24.556Z,15.17
2019-03-28T06:11:55.428Z,15.17
2019-03-28T06:14:26.379Z,15.43
2019-03-28T06:16:57.284Z,16.60
2019-03-28T06:19:28.212Z,19.60
2019-03-28T06:22:00.705Z,29.53
2019-03-28T06:24:31.668Z,25.60
2019-03-28T06:27:02.587Z,27.53
2019-03-28T06:29:33.455Z,55.67
2019-03-28T06:32:04.408Z,49.37
2019-03-28T06:34:35.325Z,38.87
2019-03-28T06:37:06.495Z,30.93
2019-03-28T06:39:39.516Z,35.03
2019-03-28T06:42:10.422Z,30.53
2019-03-28T06:44:41.349Z,40.17
2019-03-28T06:47:12.255Z,48.90
2019-03-28T06:49:43.233Z,36.60
2019-03-28T06:52:14.131Z,82.50
2019-03-28T06:54:46.085Z,38.07
2019-03-28T06:57:18.945Z,18.07
2019-03-28T06:59:49.615Z,19.97
2019-03-28T07:02:21.911Z,19.87
2019-03-28T07:04:53.033Z,23.17
2019-03-28T07:07:23.931Z,31.53
2019-03-28T07:09:55.766Z,20.20
2019-03-28T07:12:26.678Z,28.80
2019-03-28T07:14:59.627Z,20.93
2019-03-28T07:17:30.203Z,34.77
2019-03-28T07:20:01.135Z,41.17
2019-03-28T07:22:32.954Z,17.23
2019-03-28T07:25:05.887Z,17.13
2019-03-28T07:27:36.783Z,15.27
2019-03-28T07:30:10.121Z,17.27
2019-03-28T07:32:43.304Z,14.80
2019-03-28T07:35:13.655Z,15.37
2019-03-28T07:37:44.552Z,16.77
2019-03-28T07:40:16.068Z,20.93
2019-03-28T07:42:46.969Z,18.97
2019-03-28T07:45:18.003Z,15.75
2019-03-28T07:47:48.909Z,16.60
2019-03-28T07:50:19.845Z,14.43
2019-03-28T07:52:50.826Z,17.35
2019-03-28T07:55:22.597Z,13.20
2019-03-28T07:57:53.509Z,14.40
2019-03-28T08:00:26.634Z,16.32
2019-03-28T08:02:58.549Z,15.60
2019-03-28T08:05:29.644Z,15.03
2019-03-28T08:08:00.579Z,13.80
2019-03-28T08:10:31.533Z,20.12
2019-03-28T08:13:02.505Z,31.90
2019-03-28T08:15:33.433Z,18.62
2019-03-28T08:18:04.346Z,13.83
2019-03-28T08:20:35.280Z,19.35
2019-03-28T08:23:06.199Z,16.12
2019-03-28T08:25:38.027Z,14.10
2019-03-28T08:28:08.927Z,16.10
2019-03-28T08:30:40.156Z,21.37
2019-03-28T08:33:11.067Z,17.57
2019-03-28T08:35:47.082Z,21.02
2019-03-28T08:38:20.299Z,14.55
2019-03-28T08:40:53.021Z,16.05
2019-03-28T08:43:23.945Z,17.15
2019-03-28T08:45:54.903Z,15.08
2019-03-28T08:48:25.877Z,13.22
2019-03-28T08:50:56.812Z,20.80
2019-03-28T08:53:31.291Z,17.35
2019-03-28T08:56:02.965Z,20.57
2019-03-28T08:58:33.879Z,24.65
2019-03-28T09:01:05.890Z,36.60
2019-03-28T09:03:37.016Z,26.15
2019-03-28T09:06:07.971Z,16.77
2019-03-28T09:08:38.883Z,25.55
2019-03-28T09:11:10.731Z,12.47
2019-03-28T09:13:41.648Z,13.18
2019-03-28T09:16:12.589Z,13.78
2019-03-28T09:18:43.503Z,12.00
2019-03-28T09:21:14.450Z,11.78
2019-03-28T09:23:46.131Z,11.28
2019-03-28T09:26:17.130Z,11.40
2019-03-28T09:28:48.061Z,11.38
2019-03-28T09:31:20.366Z,11.08
2019-03-28T09:33:54.191Z,11.68
2019-03-28T09:36:25.138Z,10.30
2019-03-28T09:38:56.059Z,12.28
2019-03-28T09:41:29.313Z,10.00
2019-03-28T09:44:00.240Z,10.25
2019-03-28T09:46:31.166Z,13.30
2019-03-28T09:49:02.072Z,6.95
2019-03-28T09:51:35.196Z,10.40
2019-03-28T09:54:05.771Z,7.30
2019-03-28T09:56:37.615Z,6.75
2019-03-28T09:59:08.684Z,6.92
2019-03-28T10:01:39.749Z,6.65
2019-03-28T10:04:10.733Z,5.65
2019-03-28T10:06:41.675Z,6.67
2019-03-28T10:09:15.581Z,6.08
2019-03-28T10:11:47.496Z,5.65
2019-03-28T10:14:18.397Z,7.05
2019-03-28T10:16:49.333Z,6.00
2019-03-28T10:19:20.300Z,5.15
2019-03-28T10:21:51.229Z,5.37
2019-03-28T10:24:22.951Z,5.35
2019-03-28T10:26:54.879Z,5.53
2019-03-28T10:29:25.775Z,5.53
2019-03-28T10:31:56.749Z,5.30
2019-03-28T10:34:27.674Z,5.87
2019-03-28T10:37:00.393Z,5.47
2019-03-28T10:39:31.299Z,4.40
2019-03-28T10:42:03.145Z,4.65
2019-03-28T10:44:34.057Z,4.40
2019-03-28T10:47:05.257Z,4.85
2019-03-28T10:49:36.157Z,4.85
2019-03-28T10:52:07.410Z,4.75
2019-03-28T10:54:38.308Z,4.80
2019-03-28T10:57:33.002Z,4.35
2019-03-28T11:00:23.866Z,4.80
2019-03-28T11:03:19.629Z,7.62
2019-03-28T11:05:50.642Z,3.50
2019-03-28T11:08:21.870Z,4.53
2019-03-28T11:10:53.178Z,4.80
2019-03-28T11:13:24.274Z,6.47
2019-03-28T11:15:55.192Z,6.50
2019-03-28T11:18:29.817Z,7.80
2019-03-28T11:21:01.648Z,7.53
2019-03-28T11:23:34.774Z,7.42
2019-03-28T11:26:07.725Z,6.85
2019-03-28T11:28:40.370Z,5.65
2019-03-28T11:31:11.257Z,5.70
2019-03-28T11:33:52.769Z,5.20
2019-03-28T11:36:30.762Z,5.20
2019-03-28T11:39:02.925Z,4.75
2019-03-28T11:41:35.378Z,3.65
2019-03-28T11:44:06.322Z,4.75
2019-03-28T11:46:39.078Z,5.15
2019-03-28T11:49:10.090Z,3.72
2019-03-28T11:51:40.986Z,4.28
2019-03-28T11:54:17.814Z,3.98
2019-03-28T11:56:50.387Z,5.83
2019-03-28T11:59:38.790Z,3.62
2019-03-28T12:02:20.290Z,3.60
2019-03-28T12:04:50.138Z,45.30
2019-03-28T12:07:23.776Z,6.20
2019-03-28T12:09:54.725Z,5.40
2019-03-28T12:12:25.629Z,4.80
2019-03-28T12:14:56.578Z,6.15
2019-03-28T12:17:27.489Z,6.25
2019-03-28T12:19:58.409Z,4.85
2019-03-28T12:22:29.312Z,5.20
2019-03-28T12:25:00.422Z,5.05
2019-03-28T12:27:31.408Z,4.92
2019-03-28T12:30:03.152Z,4.83
2019-03-28T12:32:34.055Z,7.83
2019-03-28T12:35:06.482Z,7.70
2019-03-28T12:37:39.920Z,9.05
2019-03-28T12:40:10.615Z,7.20
2019-03-28T12:42:41.507Z,8.55
2019-03-28T12:45:12.993Z,7.83
2019-03-28T12:47:43.873Z,8.45
2019-03-28T12:50:14.993Z,8.03
2019-03-28T12:52:45.914Z,7.62
2019-03-28T12:55:16.836Z,6.92
2019-03-28T12:57:48.564Z,5.97
2019-03-28T13:00:23.403Z,8.85
2019-03-28T13:02:54.310Z,10.18
2019-03-28T13:05:25.241Z,7.33
2019-03-28T13:07:56.196Z,7.20
2019-03-28T13:10:27.450Z,6.12
2019-03-28T13:12:58.711Z,7.17
2019-03-28T13:15:29.652Z,6.65
2019-03-28T13:18:00.542Z,6.97
2019-03-28T13:20:31.469Z,9.25
2019-03-28T13:23:02.396Z,8.73
2019-03-28T13:25:33.307Z,6.58
2019-03-28T13:28:06.395Z,8.58
2019-03-28T13:30:38.185Z,8.00
2019-03-28T13:33:09.088Z,9.88
2019-03-28T13:35:40.035Z,9.15
2019-03-28T13:38:10.942Z,9.45
2019-03-28T13:40:41.874Z,7.67
2019-03-28T13:43:12.776Z,9.75
2019-03-28T13:45:44.582Z,7.72
2019-03-28T13:48:15.474Z,9.38
2019-03-28T13:50:46.419Z,9.30
2019-03-28T13:53:17.328Z,10.65
2019-03-28T13:55:48.275Z,10.10
2019-03-28T13:58:19.181Z,9.85
2019-03-28T14:00:50.939Z,9.13
2019-03-28T14:03:21.853Z,10.35
2019-03-28T14:05:52.787Z,8.48
2019-03-28T14:08:23.776Z,6.40
2019-03-28T14:10:54.703Z,9.73
2019-03-28T14:13:25.615Z,8.53
2019-03-28T14:15:58.152Z,5.55
2019-03-28T14:18:29.179Z,6.40
2019-03-28T14:21:00.095Z,7.17
2019-03-28T14:23:31.007Z,9.67
2019-03-28T14:26:10.691Z,8.27
2019-03-28T14:28:41.729Z,9.23
2019-03-28T14:31:13.639Z,11.53
2019-03-28T14:33:44.546Z,17.13
2019-03-28T14:36:15.475Z,16.07
2019-03-28T14:38:46.381Z,12.20
2019-03-28T14:41:17.313Z,11.10
2019-03-28T14:43:48.213Z,9.67
2019-03-28T14:46:20.028Z,6.93
2019-03-28T14:48:50.960Z,8.63
2019-03-28T14:51:21.943Z,8.63
2019-03-28T14:53:52.861Z,11.93
2019-03-28T14:56:24.893Z,20.97
2019-03-28T14:58:58.492Z,24.43
2019-03-28T15:01:30.396Z,15.17
2019-03-28T15:04:01.304Z,16.50
2019-03-28T15:06:32.236Z,13.07
2019-03-28T15:09:04.114Z,15.50
2019-03-28T15:11:35.039Z,8.80
2019-03-28T15:14:05.939Z,10.00
2019-03-28T15:16:37.882Z,10.17
2019-03-28T15:19:08.850Z,9.80
2019-03-28T15:21:39.785Z,11.07
2019-03-28T15:24:10.703Z,13.20
2019-03-28T15:26:47.299Z,10.00
2019-03-28T15:29:18.254Z,22.10
2019-03-28T15:31:50.846Z,10.53
2019-03-28T15:34:21.757Z,13.23
2019-03-28T15:36:53.563Z,15.27
2019-03-28T15:39:24.701Z,13.47
2019-03-28T15:41:55.635Z,11.47
2019-03-28T15:44:26.564Z,11.33
2019-03-28T15:46:58.413Z,9.60
2019-03-28T15:49:29.368Z,10.40
2019-03-28T15:52:03.116Z,9.17
2019-03-28T15:54:32.867Z,9.87
2019-03-28T15:57:03.810Z,12.90
2019-03-28T15:59:34.707Z,11.73
2019-03-28T16:02:07.131Z,10.53
2019-03-28T16:04:40.089Z,32.40
2019-03-28T16:07:11.020Z,11.80
2019-03-28T16:10:04.088Z,9.68
2019-03-28T16:12:34.932Z,10.23
2019-03-28T16:15:07.827Z,12.57
2019-03-28T16:17:39.619Z,11.27
2019-03-28T16:20:10.925Z,13.73
2019-03-28T16:22:41.853Z,12.73
2019-03-28T16:25:12.856Z,20.23
2019-03-28T16:27:44.961Z,14.07
2019-03-28T16:30:18.208Z,13.53
2019-03-28T16:32:50.896Z,18.27
2019-03-28T16:35:21.791Z,16.23
2019-03-28T16:37:53.745Z,19.00
2019-03-28T16:40:25.007Z,16.90
2019-03-28T16:42:55.942Z,14.97
2019-03-28T16:45:26.859Z,11.73
2019-03-28T16:48:02.584Z,17.63
2019-03-28T16:50:34.134Z,19.77
2019-03-28T16:53:05.119Z,17.60
2019-03-28T16:55:36.038Z,18.00
2019-03-28T16:58:06.957Z,21.27
2019-03-28T17:00:38.666Z,43.63
2019-03-28T17:03:10.624Z,17.30
2019-03-28T17:05:41.773Z,22.13
2019-03-28T17:08:13.144Z,25.30
2019-03-28T17:10:46.615Z,28.17
2019-03-28T17:13:18.759Z,29.07
2019-03-28T17:15:51.022Z,87.43
2019-03-28T17:18:23.165Z,82.67
2019-03-28T17:20:54.074Z,75.87
2019-03-28T17:23:25.023Z,94.93
2019-03-28T17:25:55.928Z,97.30
2019-03-28T17:28:26.866Z,99.50
2019-03-28T17:30:58.634Z,99.90
2019-03-28T17:33:30.409Z,118.47
2019-03-28T17:36:01.337Z,100.27
2019-03-28T17:38:32.287Z,83.47
2019-03-28T17:41:06.430Z,72.00
2019-03-28T17:43:35.845Z,73.07
2019-03-28T17:46:06.742Z,70.10
2019-03-28T17:48:38.530Z,80.83
2019-03-28T17:51:09.676Z,77.00
2019-03-28T17:53:40.955Z,95.97
2019-03-28T17:56:11.857Z,87.80
2019-03-28T17:58:48.332Z,84.30
2019-03-28T18:01:15.574Z,100.27
2019-03-28T18:03:47.427Z,62.47
2019-03-28T18:06:18.335Z,66.13
2019-03-28T18:08:49.272Z,140.07
2019-03-28T18:11:22.176Z,143.60
2019-03-28T18:13:52.835Z,167.93
2019-03-28T18:16:23.864Z,153.40
2019-03-28T18:18:55.864Z,166.47
2019-03-28T18:21:26.783Z,130.33
2019-03-28T18:23:57.723Z,128.27
2019-03-28T18:26:28.640Z,108.43
2019-03-28T18:28:59.625Z,100.93
2019-03-28T18:31:31.474Z,93.43
2019-03-28T18:34:03.321Z,78.67
2019-03-28T18:36:34.295Z,62.70
2019-03-28T18:39:06.820Z,57.03
2019-03-28T18:41:38.766Z,52.20
2019-03-28T18:44:09.731Z,45.17
2019-03-28T18:46:40.645Z,46.37
2019-03-28T18:49:12.529Z,44.10
2019-03-28T18:51:43.435Z,47.00
2019-03-28T18:54:14.368Z,34.47
2019-03-28T18:56:45.292Z,33.83
2019-03-28T18:59:16.225Z,34.77
2019-03-28T19:01:47.131Z,35.60
2019-03-28T19:04:20.013Z,48.87
2019-03-28T19:06:50.929Z,65.27
2019-03-28T19:09:21.896Z,62.83
2019-03-28T19:11:52.813Z,62.90
2019-03-28T19:14:23.746Z,48.70
2019-03-28T19:16:54.651Z,38.27
2019-03-28T19:19:38.771Z,27.50
2019-03-28T19:21:58.195Z,31.37
2019-03-28T19:24:29.126Z,20.83
2019-03-28T19:27:00.025Z,28.57
2019-03-28T19:29:30.969Z,24.33
2019-03-28T19:32:01.881Z,18.10
2019-03-28T19:34:33.639Z,27.47
2019-03-28T19:37:04.654Z,17.73
2019-03-28T19:39:36.911Z,18.50
2019-03-28T19:42:07.858Z,14.73
2019-03-28T19:44:38.864Z,17.07
2019-03-28T19:47:09.791Z,13.67
2019-03-28T19:49:40.799Z,12.77
2019-03-28T19:52:13.390Z,11.67
2019-03-28T19:54:44.386Z,11.93
2019-03-28T19:57:15.294Z,14.50
2019-03-28T19:59:46.216Z,12.40
2019-03-28T20:02:17.194Z,11.73
2019-03-28T20:04:49.110Z,10.03
2019-03-28T20:07:21.822Z,8.10
2019-03-28T20:09:52.623Z,7.50
2019-03-28T20:12:23.518Z,7.63
2019-03-28T20:14:54.451Z,7.47
2019-03-28T20:17:25.341Z,7.43
2019-03-28T20:19:57.188Z,8.00
2019-03-28T20:22:28.087Z,8.00
2019-03-28T20:24:59.028Z,10.30
2019-03-28T20:27:29.920Z,8.83
2019-03-28T20:30:01.293Z,7.83
2019-03-28T20:32:33.831Z,10.30
2019-03-28T20:35:05.863Z,8.57
2019-03-28T20:37:37.841Z,13.53
2019-03-28T20:40:11.070Z,8.50
2019-03-28T20:42:41.987Z,9.77
2019-03-28T20:45:13.437Z,10.00
2019-03-28T20:47:44.410Z,8.37
2019-03-28T20:50:17.349Z,10.07
2019-03-28T20:52:48.251Z,9.00
2019-03-28T20:55:19.192Z,10.43
2019-03-28T20:57:50.089Z,7.30
2019-03-28T21:00:39.414Z,8.87
2019-03-28T21:03:10.752Z,13.83
2019-03-28T21:05:42.552Z,8.60
2019-03-28T21:08:13.750Z,8.53
2019-03-28T21:10:44.679Z,9.20
2019-03-28T21:13:15.565Z,9.37
2019-03-28T21:15:46.506Z,7.87
2019-03-28T21:18:17.410Z,8.37
2019-03-28T21:20:49.238Z,7.87
2019-03-28T21:23:20.120Z,9.57
2019-03-28T21:25:51.060Z,9.33
2019-03-28T21:28:21.966Z,8.87
2019-03-28T21:30:53.696Z,8.50
2019-03-28T21:33:25.483Z,9.33
2019-03-28T21:35:56.546Z,9.40
2019-03-28T21:38:27.431Z,8.47
2019-03-28T21:40:59.691Z,7.63
2019-03-28T21:43:31.101Z,9.00
2019-03-28T21:46:02.037Z,9.83
2019-03-28T21:48:32.928Z,9.13
2019-03-28T21:51:04.681Z,8.67
2019-03-28T21:53:35.578Z,8.80
2019-03-28T21:56:06.516Z,8.47
2019-03-28T21:58:37.416Z,8.50
2019-03-28T22:01:08.331Z,8.87
2019-03-28T22:03:40.015Z,8.67
2019-03-28T22:06:11.888Z,8.60
2019-03-28T22:08:42.786Z,8.83
2019-03-28T22:11:13.714Z,9.13
2019-03-28T22:13:44.616Z,8.83
2019-03-28T22:16:15.534Z,8.87
2019-03-28T22:18:46.430Z,9.53
2019-03-28T22:21:19.866Z,9.07
2019-03-28T22:23:50.764Z,8.87
2019-03-28T22:26:21.690Z,9.77
2019-03-28T22:28:52.584Z,9.67
2019-03-28T22:31:23.502Z,9.27
2019-03-28T22:33:55.168Z,9.90
2019-03-28T22:36:26.136Z,9.80
2019-03-28T22:38:57.022Z,9.20
2019-03-28T22:41:27.962Z,9.90
2019-03-28T22:43:59.140Z,10.90
2019-03-28T22:46:30.072Z,9.47
2019-03-28T22:49:01.041Z,9.83
2019-03-28T22:51:32.000Z,9.20
2019-03-28T22:54:02.897Z,8.50
2019-03-28T22:56:33.818Z,8.73
2019-03-28T22:59:04.715Z,8.97
2019-03-28T23:01:36.212Z,9.03
2019-03-28T23:04:07.721Z,10.03
2019-03-28T23:06:40.141Z,9.10
2019-03-28T23:09:11.045Z,10.40
2019-03-28T23:11:47.883Z,9.80
2019-03-28T23:14:14.578Z,9.83
2019-03-28T23:16:45.498Z,9.67
2019-03-28T23:19:16.382Z,9.17
2019-03-28T23:21:48.153Z,9.50
2019-03-28T23:24:19.039Z,9.03
2019-03-28T23:26:49.970Z,9.50
2019-03-28T23:29:20.865Z,9.33
2019-03-28T23:31:51.858Z,9.40
2019-03-28T23:34:23.272Z,9.97
2019-03-28T23:36:54.224Z,9.30
2019-03-28T23:39:25.139Z,9.57
2019-03-28T23:41:56.061Z,9.70
2019-03-28T23:44:27.217Z,9.20
2019-03-28T23:46:58.782Z,10.00
2019-03-28T23:49:29.676Z,9.87
2019-03-28T23:52:01.432Z,9.33
2019-03-28T23:54:32.329Z,9.00
2019-03-28T23:57:03.353Z,9.20
2019-03-28T23:59:34.293Z,9.77
